createdAt,value
2023-02-16T00:02:18.998Z,4.70
2023-02-16T00:05:42.623Z,5.30
2023-02-16T00:09:06.772Z,5.60
2023-02-16T00:12:48.979Z,5.80
2023-02-16T00:16:17.073Z,6.10
2023-02-16T00:19:42.781Z,6.20
2023-02-16T00:23:06.731Z,6.20
2023-02-16T00:26:33.865Z,6.30
2023-02-16T00:29:57.793Z,6.40
2023-02-16T00:33:25.494Z,6.50
2023-02-16T00:36:49.733Z,6.50
2023-02-16T00:40:17.019Z,6.50
2023-02-16T00:43:41.150Z,6.50
2023-02-16T00:47:13.974Z,6.50
2023-02-16T00:50:46.496Z,6.50
2023-02-16T00:54:10.027Z,6.50
2023-02-16T00:57:36.580Z,6.40
2023-02-16T01:01:09.293Z,6.40
2023-02-16T01:04:33.892Z,6.40
2023-02-16T01:08:19.016Z,6.40
2023-02-16T01:11:42.822Z,6.40
2023-02-16T01:15:11.089Z,6.40
2023-02-16T01:18:34.794Z,6.30
2023-02-16T01:21:58.796Z,6.40
2023-02-16T01:25:27.199Z,6.40
2023-02-16T01:28:51.938Z,6.30
2023-02-16T01:32:18.042Z,6.40
2023-02-16T01:35:42.064Z,6.30
2023-02-16T01:39:06.188Z,6.30
2023-02-16T01:42:37.899Z,6.30
2023-02-16T01:46:08.642Z,6.20
2023-02-16T01:49:33.204Z,6.20
2023-02-16T01:52:59.666Z,6.10
2023-02-16T01:56:31.533Z,6.10
2023-02-16T02:00:14.334Z,6.00
2023-02-16T02:03:57.102Z,6.00
2023-02-16T02:07:32.585Z,5.90
2023-02-16T02:11:06.502Z,5.90
2023-02-16T02:14:37.977Z,5.90
2023-02-16T02:18:03.451Z,5.90
2023-02-16T02:22:06.125Z,5.80
2023-02-16T02:26:16.134Z,5.80
2023-02-16T02:30:16.698Z,5.80
2023-02-16T02:33:54.781Z,5.80
2023-02-16T02:37:27.565Z,5.80
2023-02-16T02:41:01.308Z,5.80
2023-02-16T02:44:29.929Z,5.70
2023-02-16T02:47:55.976Z,5.70
2023-02-16T02:51:34.332Z,5.70
2023-02-16T02:55:21.918Z,5.60
2023-02-16T02:59:06.853Z,5.70
2023-02-16T03:02:33.139Z,5.70
2023-02-16T03:06:06.552Z,5.70
2023-02-16T03:09:31.048Z,5.70
2023-02-16T03:12:55.381Z,5.60
2023-02-16T03:16:25.929Z,5.60
2023-02-16T03:20:10.171Z,5.60
2023-02-16T03:23:55.192Z,5.60
2023-02-16T03:27:40.944Z,5.70
2023-02-16T03:31:07.378Z,5.70
2023-02-16T03:34:32.984Z,5.80
2023-02-16T03:37:56.566Z,5.80
2023-02-16T03:41:22.318Z,5.80
2023-02-16T03:44:48.359Z,5.70
2023-02-16T03:48:12.380Z,5.70
2023-02-16T03:51:36.077Z,5.70
2023-02-16T03:55:00.397Z,5.70
2023-02-16T03:58:25.974Z,5.60
2023-02-16T04:01:50.090Z,5.60
2023-02-16T04:05:13.993Z,5.60
2023-02-16T04:08:38.034Z,5.50
2023-02-16T04:12:20.224Z,5.60
2023-02-16T04:15:45.434Z,5.50
2023-02-16T04:19:11.382Z,5.60
2023-02-16T04:22:34.927Z,5.60
2023-02-16T04:25:58.990Z,5.60
2023-02-16T04:29:23.071Z,5.60
2023-02-16T04:32:50.579Z,5.60
2023-02-16T04:36:15.064Z,5.50
2023-02-16T04:39:40.372Z,5.40
2023-02-16T04:43:03.916Z,5.40
2023-02-16T04:46:28.151Z,5.40
2023-02-16T04:49:53.642Z,5.50
2023-02-16T04:53:18.108Z,5.40
2023-02-16T04:56:44.323Z,5.40
2023-02-16T05:00:11.578Z,5.40
2023-02-16T05:03:36.228Z,5.50
2023-02-16T05:07:01.572Z,5.50
2023-02-16T05:10:30.594Z,5.50
2023-02-16T05:14:14.468Z,5.60
2023-02-16T05:17:38.059Z,5.50
2023-02-16T05:21:20.315Z,5.60
2023-02-16T05:24:55.038Z,5.60
2023-02-16T05:28:21.805Z,5.60
2023-02-16T05:31:46.453Z,5.60
2023-02-16T05:35:10.110Z,5.50
2023-02-16T05:38:36.611Z,5.50
2023-02-16T05:42:02.552Z,5.60
2023-02-16T05:45:26.195Z,5.60
2023-02-16T05:48:50.151Z,5.60
2023-02-16T05:52:14.132Z,5.70
2023-02-16T05:55:40.340Z,5.70
2023-02-16T05:59:05.581Z,5.70
2023-02-16T06:02:29.421Z,5.70
2023-02-16T06:05:54.827Z,5.70
2023-02-16T06:09:19.159Z,5.60
2023-02-16T06:12:44.863Z,5.70
2023-02-16T06:16:10.640Z,5.60
2023-02-16T06:19:37.520Z,5.60
2023-02-16T06:23:01.154Z,5.60
2023-02-16T06:26:25.659Z,5.60
2023-02-16T06:29:50.242Z,5.60
2023-02-16T06:33:17.939Z,5.60
2023-02-16T06:36:42.920Z,5.60
2023-02-16T06:40:09.881Z,5.60
2023-02-16T06:43:36.758Z,5.60
2023-02-16T06:47:01.204Z,5.70
2023-02-16T06:50:26.663Z,5.70
2023-02-16T06:53:50.361Z,5.70
2023-02-16T06:57:14.177Z,5.80
2023-02-16T07:00:38.227Z,5.80
2023-02-16T07:04:09.574Z,5.90
2023-02-16T07:07:34.503Z,6.00
2023-02-16T07:10:58.222Z,6.00
2023-02-16T07:14:22.515Z,6.10
2023-02-16T07:17:46.261Z,6.20
2023-02-16T07:21:10.272Z,6.30
2023-02-16T07:24:35.724Z,6.40
2023-02-16T07:28:00.375Z,6.60
2023-02-16T07:31:28.341Z,6.80
2023-02-16T07:34:52.211Z,6.90
2023-02-16T07:38:16.220Z,7.10
2023-02-16T07:41:41.148Z,7.20
2023-02-16T07:45:05.884Z,7.40
2023-02-16T07:48:29.476Z,7.50
2023-02-16T07:51:53.210Z,7.60
2023-02-16T07:55:16.830Z,7.70
2023-02-16T07:58:42.316Z,7.90
2023-02-16T08:02:05.972Z,7.90
2023-02-16T08:05:29.962Z,7.90
2023-02-16T08:08:53.550Z,7.90
2023-02-16T08:12:18.127Z,7.80
2023-02-16T08:15:45.257Z,7.80
2023-02-16T08:19:11.064Z,7.70
2023-02-16T08:22:34.791Z,7.70
2023-02-16T08:25:59.037Z,7.70
2023-02-16T08:29:23.803Z,7.70
2023-02-16T08:32:50.823Z,7.60
2023-02-16T08:36:18.972Z,7.70
2023-02-16T08:39:42.828Z,7.80
2023-02-16T08:43:07.012Z,7.90
2023-02-16T08:46:32.409Z,7.80
2023-02-16T08:49:57.877Z,7.90
2023-02-16T08:53:22.996Z,7.80
2023-02-16T08:56:49.527Z,7.90
2023-02-16T09:00:31.847Z,7.90
2023-02-16T09:03:55.916Z,8.10
2023-02-16T09:07:22.191Z,8.30
2023-02-16T09:10:46.628Z,8.40
2023-02-16T09:14:12.406Z,8.50
2023-02-16T09:17:38.715Z,8.60
2023-02-16T09:21:06.741Z,8.60
2023-02-16T09:24:32.197Z,8.70
2023-02-16T09:27:56.847Z,8.70
2023-02-16T09:31:25.742Z,8.70
2023-02-16T09:34:50.105Z,8.80
2023-02-16T09:38:16.638Z,9.00
2023-02-16T09:42:04.801Z,9.00
2023-02-16T09:45:29.674Z,9.20
2023-02-16T09:48:53.840Z,9.50
2023-02-16T09:52:26.136Z,9.90
2023-02-16T09:55:59.507Z,9.90
2023-02-16T09:59:34.986Z,10.20
2023-02-16T10:03:05.428Z,10.50
2023-02-16T10:06:46.002Z,10.20
2023-02-16T10:10:14.736Z,10.10
2023-02-16T10:13:43.891Z,10.20
2023-02-16T10:17:23.931Z,10.20
2023-02-16T10:20:52.215Z,10.00
2023-02-16T10:24:16.309Z,9.90
2023-02-16T10:27:42.982Z,9.80
2023-02-16T10:31:17.754Z,9.80
2023-02-16T10:34:50.124Z,9.60
2023-02-16T10:38:20.050Z,9.50
2023-02-16T10:41:47.802Z,9.50
2023-02-16T10:45:21.433Z,9.40
2023-02-16T10:48:46.400Z,9.40
2023-02-16T10:52:12.940Z,9.40
2023-02-16T10:55:38.279Z,9.40
2023-02-16T10:59:06.940Z,9.40
2023-02-16T11:02:37.476Z,9.30
2023-02-16T11:06:15.105Z,9.20
2023-02-16T11:09:41.961Z,9.20
2023-02-16T11:13:05.790Z,9.10
2023-02-16T11:16:30.667Z,9.20
2023-02-16T11:19:57.251Z,9.30
2023-02-16T11:23:24.837Z,9.40
2023-02-16T11:27:02.016Z,9.50
2023-02-16T11:30:32.777Z,9.60
2023-02-16T11:33:59.533Z,9.60
2023-02-16T11:37:27.644Z,9.60
2023-02-16T11:40:53.316Z,9.70
2023-02-16T11:44:28.068Z,9.70
2023-02-16T11:47:55.776Z,9.80
2023-02-16T11:51:32.083Z,9.90
2023-02-16T11:54:58.415Z,9.90
2023-02-16T11:58:25.075Z,9.90
2023-02-16T12:02:04.476Z,9.80
2023-02-16T12:05:37.860Z,10.00
2023-02-16T12:09:14.971Z,10.20
2023-02-16T12:12:50.471Z,10.20
2023-02-16T12:16:25.829Z,10.20
2023-02-16T12:19:58.987Z,10.30
2023-02-16T12:23:34.694Z,10.40
2023-02-16T12:27:01.361Z,10.60
2023-02-16T12:30:41.183Z,10.50
2023-02-16T12:34:20.640Z,10.60
2023-02-16T12:37:57.304Z,10.70
2023-02-16T12:41:35.644Z,10.90
2023-02-16T12:45:07.080Z,11.00
2023-02-16T12:48:41.691Z,11.20
2023-02-16T12:52:14.389Z,11.40
2023-02-16T12:55:51.607Z,11.30
2023-02-16T12:59:32.389Z,11.40
2023-02-16T13:03:05.504Z,11.60
2023-02-16T13:06:40.192Z,11.60
2023-02-16T13:10:15.973Z,11.70
2023-02-16T13:13:42.603Z,11.70
2023-02-16T13:17:13.543Z,11.80
2023-02-16T13:20:42.332Z,11.70
2023-02-16T13:24:17.595Z,11.80
2023-02-16T13:27:47.677Z,11.80
2023-02-16T13:31:27.163Z,11.80
2023-02-16T13:35:08.080Z,11.40
2023-02-16T13:39:00.699Z,11.20
2023-02-16T13:43:01.286Z,11.00
2023-02-16T13:46:31.405Z,10.80
2023-02-16T13:49:59.674Z,10.70
2023-02-16T13:53:24.491Z,10.60
2023-02-16T13:56:48.108Z,10.60
2023-02-16T14:00:29.443Z,10.60
2023-02-16T14:03:54.371Z,10.60
2023-02-16T14:07:35.712Z,10.60
2023-02-16T14:11:11.670Z,10.80
2023-02-16T14:14:38.313Z,10.90
2023-02-16T14:18:20.673Z,10.70
2023-02-16T14:21:47.970Z,10.70
2023-02-16T14:25:40.627Z,10.80
2023-02-16T14:29:13.438Z,10.80
2023-02-16T14:32:39.229Z,10.90
2023-02-16T14:36:14.198Z,10.90
2023-02-16T14:40:04.117Z,10.90
2023-02-16T14:43:29.232Z,10.80
2023-02-16T14:47:05.498Z,10.80
2023-02-16T14:50:54.103Z,10.70
2023-02-16T14:54:50.369Z,10.60
2023-02-16T14:58:27.662Z,10.60
2023-02-16T15:01:52.179Z,10.60
2023-02-16T15:05:19.051Z,10.50
2023-02-16T15:08:48.953Z,10.40
2023-02-16T15:12:24.403Z,10.40
2023-02-16T15:15:52.139Z,10.40
2023-02-16T15:19:21.659Z,10.40
2023-02-16T15:22:51.095Z,10.40
2023-02-16T15:26:20.431Z,10.30
2023-02-16T15:29:43.956Z,10.30
2023-02-16T15:33:16.000Z,10.30
2023-02-16T15:36:42.146Z,10.20
2023-02-16T15:40:25.919Z,10.10
2023-02-16T15:43:51.991Z,10.10
2023-02-16T15:47:18.348Z,10.20
2023-02-16T15:50:43.541Z,10.10
2023-02-16T15:54:14.300Z,10.10
2023-02-16T15:57:39.951Z,10.10
2023-02-16T16:01:03.841Z,10.10
2023-02-16T16:04:28.569Z,10.10
2023-02-16T16:07:54.555Z,10.10
2023-02-16T16:11:18.554Z,10.10
2023-02-16T16:14:51.413Z,10.10
2023-02-16T16:18:37.486Z,10.10
2023-02-16T16:22:02.494Z,10.00
2023-02-16T16:25:38.274Z,10.10
2023-02-16T16:29:02.271Z,10.10
2023-02-16T16:32:28.659Z,10.00
2023-02-16T16:35:52.441Z,10.10
2023-02-16T16:39:25.495Z,10.00
2023-02-16T16:43:09.632Z,10.00
2023-02-16T16:46:33.688Z,10.00
2023-02-16T16:49:59.696Z,9.90
2023-02-16T16:53:53.732Z,9.90
2023-02-16T16:57:19.586Z,9.90
2023-02-16T17:00:44.525Z,9.90
2023-02-16T17:04:08.214Z,9.90
2023-02-16T17:07:33.092Z,9.80
2023-02-16T17:10:56.821Z,9.80
2023-02-16T17:14:21.498Z,9.80
2023-02-16T17:17:46.578Z,9.80
2023-02-16T17:21:13.267Z,9.70
2023-02-16T17:24:36.806Z,9.70
2023-02-16T17:28:00.509Z,9.70
2023-02-16T17:31:24.144Z,9.80
2023-02-16T17:34:49.063Z,9.70
2023-02-16T17:38:18.063Z,9.70
2023-02-16T17:41:41.791Z,9.70
2023-02-16T17:45:05.982Z,9.70
2023-02-16T17:48:31.408Z,9.70
2023-02-16T17:51:57.019Z,9.70
2023-02-16T17:55:20.731Z,9.80
2023-02-16T17:58:44.962Z,9.80
2023-02-16T18:02:09.956Z,9.70
2023-02-16T18:05:35.318Z,9.80
2023-02-16T18:09:00.222Z,9.80
2023-02-16T18:12:23.892Z,9.80
2023-02-16T18:15:49.082Z,9.80
2023-02-16T18:19:15.663Z,9.80
2023-02-16T18:22:44.807Z,9.90
2023-02-16T18:26:14.190Z,9.90
2023-02-16T18:29:37.751Z,9.90
2023-02-16T18:33:01.390Z,9.80
2023-02-16T18:36:24.958Z,9.80
2023-02-16T18:39:48.599Z,9.80
2023-02-16T18:43:13.767Z,9.80
2023-02-16T18:46:37.504Z,9.90
2023-02-16T18:50:01.105Z,9.90
2023-02-16T18:53:24.696Z,9.90
2023-02-16T18:56:48.504Z,9.90
2023-02-16T19:00:15.168Z,9.90
2023-02-16T19:03:38.851Z,9.90
2023-02-16T19:07:02.426Z,9.90
2023-02-16T19:10:26.232Z,9.90
2023-02-16T19:13:50.478Z,9.90
2023-02-16T19:17:15.386Z,9.90
2023-02-16T19:20:38.956Z,9.90
2023-02-16T19:24:02.624Z,9.90
2023-02-16T19:27:26.159Z,9.80
2023-02-16T19:30:50.284Z,9.80
2023-02-16T19:34:15.235Z,9.70
2023-02-16T19:37:38.837Z,9.60
2023-02-16T19:41:02.797Z,9.40
2023-02-16T19:44:26.434Z,9.30
2023-02-16T19:47:51.516Z,9.20
2023-02-16T19:51:16.674Z,9.20
2023-02-16T19:54:40.211Z,9.10
2023-02-16T19:58:06.206Z,9.10
2023-02-16T20:01:30.156Z,9.00
2023-02-16T20:04:55.120Z,8.90
2023-02-16T20:08:20.504Z,8.90
2023-02-16T20:11:44.113Z,8.80
2023-02-16T20:15:08.290Z,8.80
2023-02-16T20:18:32.215Z,8.80
2023-02-16T20:21:55.781Z,8.80
2023-02-16T20:25:20.963Z,8.70
2023-02-16T20:28:44.518Z,8.70
2023-02-16T20:32:08.144Z,8.70
2023-02-16T20:35:31.705Z,8.70
2023-02-16T20:38:55.536Z,8.70
2023-02-16T20:42:20.407Z,8.70
2023-02-16T20:45:44.023Z,8.70
2023-02-16T20:49:08.154Z,8.60
2023-02-16T20:52:31.721Z,8.70
2023-02-16T20:56:02.502Z,8.70
2023-02-16T20:59:28.535Z,8.80
2023-02-16T21:02:53.199Z,8.80
2023-02-16T21:06:17.317Z,8.80
2023-02-16T21:09:41.276Z,8.80
2023-02-16T21:13:04.908Z,8.80
2023-02-16T21:16:31.761Z,8.70
2023-02-16T21:19:55.406Z,8.70
2023-02-16T21:23:19.100Z,8.70
2023-02-16T21:26:42.642Z,8.60
2023-02-16T21:30:07.546Z,8.60
2023-02-16T21:33:33.168Z,8.60
2023-02-16T21:36:56.913Z,8.60
2023-02-16T21:40:40.665Z,8.60
2023-02-16T21:44:06.939Z,8.60
2023-02-16T21:47:48.103Z,8.60
2023-02-16T21:51:13.698Z,8.60
2023-02-16T21:54:53.955Z,8.60
2023-02-16T21:58:17.604Z,8.50
2023-02-16T22:01:43.135Z,8.50
2023-02-16T22:05:07.200Z,8.50
2023-02-16T22:08:37.799Z,8.50
2023-02-16T22:12:01.594Z,8.50
2023-02-16T22:15:25.900Z,8.50
2023-02-16T22:18:49.979Z,8.50
2023-02-16T22:22:13.488Z,8.50
2023-02-16T22:25:41.138Z,8.50
2023-02-16T22:29:06.601Z,8.50
2023-02-16T22:32:30.711Z,8.60
2023-02-16T22:35:54.336Z,8.60
2023-02-16T22:39:19.378Z,8.60
2023-02-16T22:42:44.334Z,8.60
2023-02-16T22:46:10.152Z,8.70
2023-02-16T22:49:33.791Z,8.70
2023-02-16T22:52:57.336Z,8.70
2023-02-16T22:56:20.989Z,8.70
2023-02-16T22:59:46.298Z,8.70
2023-02-16T23:03:09.838Z,8.70
2023-02-16T23:06:35.213Z,8.70
2023-02-16T23:09:58.898Z,8.70
2023-02-16T23:13:22.503Z,8.70
2023-02-16T23:16:49.527Z,8.70
2023-02-16T23:20:13.270Z,8.70
2023-02-16T23:23:37.159Z,8.70
2023-02-16T23:27:00.800Z,8.70
2023-02-16T23:30:24.401Z,8.80
2023-02-16T23:33:49.716Z,8.80
2023-02-16T23:37:13.292Z,8.80
2023-02-16T23:40:36.786Z,8.80
2023-02-16T23:44:01.298Z,8.80
2023-02-16T23:47:25.709Z,8.80
2023-02-16T23:50:51.980Z,8.80
2023-02-16T23:54:16.490Z,8.80
2023-02-16T23:57:40.522Z,8.80
